Time;durP1;ratioP1;P1;durP2;ratioP2;P2;SDS_P1;SDS_P2;PMS_P1;PMS_P2;Temp;Humidity;BMP_temperature;BMP_pressure;BME280_temperature;BME280_humidity;BME280_pressure;Samples;Min_cycle;Max_cycle;Signal;HPM_P1;HPM_P2
2022/03/28 00:00:58;;;;;;;1.43;0.97;;;;;;;-0.28;28.74;98964.41;4995655;28;20085;-66
2022/03/28 00:03:26;;;;;;;1.90;1.10;;;;;;;-0.13;28.89;98965.09;4996081;28;20046;-65
2022/03/28 00:05:52;;;;;;;1.13;1.03;;;;;;;-0.32;28.75;98956.88;4979514;28;20050;-66
2022/03/28 00:08:18;;;;;;;5.97;1.10;;;;;;;-0.31;28.95;98951.56;5011736;28;20060;-65
2022/03/28 00:10:44;;;;;;;1.97;1.10;;;;;;;-0.30;28.99;98955.00;4947430;28;20046;-66
2022/03/28 00:13:10;;;;;;;6.87;1.10;;;;;;;-0.36;28.86;98958.91;4979026;28;20136;-66
2022/03/28 00:15:35;;;;;;;1.57;1.10;;;;;;;-0.37;29.26;98948.56;4995776;28;20050;-66
2022/03/28 00:18:08;;;;;;;2.73;1.30;;;;;;;-0.33;29.36;98958.69;5012882;28;20140;-67
2022/03/28 00:20:34;;;;;;;1.40;1.13;;;;;;;-0.31;29.08;98950.75;4979512;28;20084;-67
2022/03/28 00:23:03;;;;;;;3.37;1.27;;;;;;;-0.19;29.00;98958.56;4978827;28;20069;-67
2022/03/28 00:25:29;;;;;;;1.53;1.43;;;;;;;-0.36;29.49;98964.13;4995244;28;20156;-67
2022/03/28 00:27:55;;;;;;;3.53;1.30;;;;;;;-0.37;29.64;98970.25;4995446;28;20136;-67
2022/03/28 00:30:21;;;;;;;2.30;1.10;;;;;;;-0.44;29.64;98953.38;4978741;28;20041;-67
2022/03/28 00:32:47;;;;;;;1.37;1.20;;;;;;;-0.44;29.26;98953.38;5011464;28;20050;-67
2022/03/28 00:35:13;;;;;;;2.80;1.60;;;;;;;-0.47;29.26;98947.53;4962795;28;20574;-67
2022/03/28 00:37:41;;;;;;;1.20;1.10;;;;;;;-0.48;28.92;98951.91;5011105;28;20073;-67
2022/03/28 00:40:11;;;;;;;1.83;1.13;;;;;;;-0.37;29.00;98945.97;4979076;28;20112;-67
2022/03/28 00:42:37;;;;;;;4.40;1.00;;;;;;;-0.43;29.14;98955.03;4978758;28;20042;-67
2022/03/28 00:45:05;;;;;;;2.67;1.03;;;;;;;-0.42;29.25;98953.25;4978346;28;20041;-67
2022/03/28 00:47:31;;;;;;;1.93;1.07;;;;;;;-0.60;29.06;98954.53;5012303;28;20102;-67
2022/03/28 00:49:57;;;;;;;1.80;1.13;;;;;;;-0.65;29.21;98935.75;4978803;28;20496;-67
2022/03/28 00:52:25;;;;;;;3.47;1.47;;;;;;;-0.59;29.49;98946.63;5010725;28;20068;-67
2022/03/28 00:54:51;;;;;;;3.20;1.13;;;;;;;-0.62;29.08;98952.03;4978615;28;20061;-67
2022/03/28 00:57:17;;;;;;;2.73;1.30;;;;;;;-0.51;29.18;98941.69;4994521;28;20046;-67
2022/03/28 00:59:44;;;;;;;3.77;1.00;;;;;;;-0.58;29.30;98939.59;4994281;28;20049;-67
2022/03/28 01:02:09;;;;;;;1.20;1.10;;;;;;;-0.60;29.17;98949.34;4978355;28;20038;-68
2022/03/28 01:04:37;;;;;;;6.23;1.23;;;;;;;-0.61;28.98;98947.63;4978616;28;20502;-67
2022/03/28 01:07:06;;;;;;;3.20;1.07;;;;;;;-0.50;29.39;98934.69;5010847;28;20050;-69
2022/03/28 01:09:33;;;;;;;1.20;1.10;;;;;;;-0.65;29.05;98936.63;4994742;28;20485;-67
2022/03/28 01:11:59;;;;;;;3.43;1.20;;;;;;;-0.68;29.18;98936.81;4994593;28;20391;-66
2022/03/28 01:14:26;;;;;;;4.67;1.23;;;;;;;-0.57;29.07;98931.69;4977831;28;20050;-67
2022/03/28 01:19:37;;;;;;;1.27;1.10;;;;;;;-0.70;28.90;98940.44;4980531;28;20077;-67
2022/03/28 01:22:03;;;;;;;1.70;1.00;;;;;;;-0.68;28.90;98926.41;4994272;28;20065;-67
2022/03/28 01:24:29;;;;;;;1.77;1.00;;;;;;;-0.68;29.04;98936.81;4978155;28;20454;-66
2022/03/28 01:26:55;;;;;;;2.70;1.27;;;;;;;-0.63;29.02;98932.09;4977954;28;20053;-66
2022/03/28 01:29:21;;;;;;;1.67;1.10;;;;;;;-0.75;28.75;98935.56;5010372;28;20072;-65
2022/03/28 01:31:47;;;;;;;2.10;1.10;;;;;;;-0.81;28.94;98935.97;5010487;28;20042;-66
2022/03/28 01:34:30;;;;;;;1.27;1.17;;;;;;;-0.61;29.03;98940.66;4977634;28;20104;-65
2022/03/28 01:36:56;;;;;;;1.17;1.07;;;;;;;-0.91;29.11;98949.75;5009850;28;20041;-66
2022/03/28 01:39:22;;;;;;;1.77;1.20;;;;;;;-0.92;29.00;98946.28;4993548;28;20049;-67
2022/03/28 01:41:49;;;;;;;2.63;1.10;;;;;;;-0.86;28.91;98950.28;4961585;28;20141;-67
2022/03/28 01:44:15;;;;;;;1.50;1.20;;;;;;;-0.90;29.27;98952.25;5011207;28;20480;-67
2022/03/28 01:46:41;;;;;;;2.30;1.10;;;;;;;-0.88;29.17;98936.50;4961637;28;20057;-67
2022/03/28 01:49:07;;;;;;;2.23;1.33;;;;;;;-0.93;29.04;98928.16;4993678;28;20042;-67
2022/03/28 01:51:33;;;;;;;2.97;1.40;;;;;;;-0.94;29.20;98932.53;4993853;28;20383;-67
2022/03/28 01:54:00;;;;;;;5.50;1.17;;;;;;;-0.79;29.08;98938.47;4993452;28;20136;-67
2022/03/28 01:56:25;;;;;;;5.47;1.37;;;;;;;-0.95;29.43;98925.66;4991891;28;20420;-67
2022/03/28 01:58:51;;;;;;;2.23;1.20;;;;;;;-0.98;29.16;98884.16;5008841;28;20069;-67
2022/03/28 02:01:18;;;;;;;2.07;1.20;;;;;;;-0.89;29.39;98912.19;5008750;28;20099;-67
2022/03/28 02:03:46;;;;;;;2.70;1.17;;;;;;;-0.88;29.43;98913.03;5008850;28;20049;-67
2022/03/28 02:06:12;;;;;;;1.40;1.30;;;;;;;-0.90;29.44;98907.94;5008722;28;20444;-67
2022/03/28 02:08:38;;;;;;;1.90;1.20;;;;;;;-1.05;29.42;98882.94;5008980;28;20049;-67
2022/03/28 02:11:04;;;;;;;2.33;1.40;;;;;;;-0.94;29.51;98905.66;4993530;28;20044;-66
2022/03/28 02:13:29;;;;;;;3.30;1.50;;;;;;;-0.92;29.47;98909.00;4993651;28;20513;-66
2022/03/28 02:15:55;;;;;;;1.30;1.20;;;;;;;-0.84;29.30;98917.94;4977235;28;20044;-66
2022/03/28 02:18:21;;;;;;;8.67;1.97;;;;;;;-0.85;29.16;98923.25;4977173;28;20061;-66
2022/03/28 02:20:47;;;;;;;7.53;3.20;;;;;;;-0.82;29.27;98934.31;4977220;28;20089;-66
2022/03/28 02:23:12;;;;;;;14.40;5.17;;;;;;;-0.88;29.35;98934.75;5010953;28;20379;-66
2022/03/28 02:25:39;;;;;;;7.87;2.60;;;;;;;-0.81;29.32;98942.94;4993394;28;20140;-66
2022/03/28 02:28:08;;;;;;;2.57;1.60;;;;;;;-0.77;29.43;98945.25;4977622;28;20394;-67
2022/03/28 02:30:34;;;;;;;2.23;1.33;;;;;;;-0.96;29.66;98938.78;5010150;28;20506;-67
2022/03/28 02:32:59;;;;;;;3.47;1.27;;;;;;;-0.98;29.18;98933.69;4977163;28;20057;-66
2022/03/28 02:35:25;;;;;;;1.40;1.30;;;;;;;-1.07;29.53;98934.31;5009630;28;20045;-67
2022/03/28 02:37:51;;;;;;;1.77;1.10;;;;;;;-1.12;29.46;98918.13;4976918;28;20132;-67
2022/03/28 02:40:17;;;;;;;3.33;1.40;;;;;;;-1.11;29.45;98918.97;4977214;28;20517;-67
2022/03/28 02:42:43;;;;;;;2.13;1.27;;;;;;;-1.11;29.74;98919.81;4993307;28;20049;-65
2022/03/28 02:45:10;;;;;;;1.50;1.10;;;;;;;-1.15;29.61;98896.69;4993138;28;20053;-67
2022/03/28 02:47:36;;;;;;;2.20;1.20;;;;;;;-1.10;29.70;98910.22;5013096;28;20042;-65
2022/03/28 02:50:03;;;;;;;1.97;1.17;;;;;;;-0.96;29.85;98910.97;5013707;28;20509;-66
2022/03/28 02:52:29;;;;;;;2.47;1.30;;;;;;;-1.37;29.52;98863.44;5013236;28;20052;-65
2022/03/28 02:54:57;;;;;;;1.60;0.93;;;;;;;-0.90;29.60;98912.31;4980754;28;20081;-65
2022/03/28 02:57:23;;;;;;;1.97;1.40;;;;;;;-1.05;29.75;98909.00;4996541;28;20133;-65
2022/03/28 02:59:49;;;;;;;3.83;1.20;;;;;;;-1.16;29.62;98890.63;4996890;28;20470;-66
2022/03/28 03:02:14;;;;;;;3.80;1.13;;;;;;;-1.37;29.82;98865.19;4996600;28;20056;-65
2022/03/28 03:04:40;;;;;;;2.40;1.27;;;;;;;-1.12;29.62;98891.28;4980788;28;20490;-67
2022/03/28 03:07:06;;;;;;;2.43;1.20;;;;;;;-1.05;29.53;98887.31;4996809;28;20057;-66
2022/03/28 03:09:32;;;;;;;5.77;1.43;;;;;;;-1.02;29.39;98890.53;4996776;28;20571;-66
2022/03/28 03:11:58;;;;;;;3.67;1.30;;;;;;;-1.00;29.37;98886.03;5012786;28;20532;-65
2022/03/28 03:14:24;;;;;;;2.03;1.33;;;;;;;-1.00;29.30;98887.81;4982801;28;20094;-66
2022/03/28 03:16:50;;;;;;;2.53;1.30;;;;;;;-0.98;29.30;98888.53;4996436;28;20501;-65
2022/03/28 03:19:16;;;;;;;2.23;1.10;;;;;;;-0.95;29.40;98876.13;4996528;28;20077;-67
2022/03/28 03:21:42;;;;;;;1.77;1.30;;;;;;;-0.91;29.19;98879.38;5012874;28;20510;-69
2022/03/28 03:24:08;;;;;;;3.03;1.00;;;;;;;-0.89;29.18;98887.94;5012999;28;20041;-70
2022/03/28 03:26:34;;;;;;;3.63;1.20;;;;;;;-0.93;29.38;98870.81;4980481;28;20434;-69
2022/03/28 03:29:00;;;;;;;1.30;1.20;;;;;;;-1.00;29.19;98862.59;4979816;28;20091;-69
2022/03/28 03:31:26;;;;;;;3.97;1.13;;;;;;;-0.95;29.30;98851.84;4984394;28;20144;-67
2022/03/28 03:33:52;;;;;;;2.80;1.20;;;;;;;-0.98;29.42;98862.47;5012549;28;20053;-71
2022/03/28 03:36:18;;;;;;;2.57;1.43;;;;;;;-0.91;29.40;98864.59;4995670;28;20041;-70
2022/03/28 03:38:44;;;;;;;3.80;1.30;;;;;;;-1.06;29.61;98862.19;4980897;28;20042;-70
2022/03/28 03:41:10;;;;;;;2.97;1.70;;;;;;;-1.20;29.48;98837.06;4996128;28;20473;-67
2022/03/28 03:43:36;;;;;;;5.73;1.27;;;;;;;-1.08;29.81;98859.69;5000665;28;20038;-68
2022/03/28 03:46:02;;;;;;;4.97;1.30;;;;;;;-1.00;29.58;98865.19;4978436;28;20457;-69
2022/03/28 03:48:29;;;;;;;2.20;1.33;;;;;;;-0.89;29.39;98862.69;4943026;28;20531;-68
2022/03/28 03:50:55;;;;;;;2.47;1.83;;;;;;;-0.77;29.21;98866.22;4972674;28;20041;-69
2022/03/28 03:53:22;;;;;;;3.37;1.40;;;;;;;-0.75;29.09;98859.97;5006369;28;20053;-71
2022/03/28 03:55:48;;;;;;;4.00;1.30;;;;;;;-0.59;29.09;98851.91;4989268;28;20054;-70
2022/03/28 03:58:14;;;;;;;3.57;1.40;;;;;;;-0.54;28.95;98857.63;4989551;28;20516;-67
2022/03/28 04:00:40;;;;;;;5.77;1.60;;;;;;;-0.40;29.06;98852.28;4989687;28;20034;-68
2022/03/28 04:03:06;;;;;;;8.23;1.77;;;;;;;-0.34;28.78;98850.03;4974384;28;20042;-69
2022/03/28 04:05:32;;;;;;;1.67;1.20;;;;;;;-0.28;28.57;98860.03;4991584;28;20056;-69
2022/03/28 04:07:59;;;;;;;6.37;1.50;;;;;;;-0.38;28.98;98846.00;4994246;28;20072;-69
2022/03/28 04:10:26;;;;;;;2.27;1.40;;;;;;;-0.25;29.02;98849.38;5011558;28;20053;-68
2022/03/28 04:12:52;;;;;;;5.57;1.43;;;;;;;-0.09;28.83;98849.97;5010060;28;20395;-67
2022/03/28 04:15:18;;;;;;;3.10;1.60;;;;;;;0.05;28.67;98850.75;5000005;28;20046;-67
2022/03/28 04:17:44;;;;;;;12.20;3.97;;;;;;;-0.22;28.89;98841.38;4994562;28;20060;-67
2022/03/28 04:20:14;;;;;;;4.57;2.03;;;;;;;0.07;28.50;98841.84;4978246;28;20038;-67
2022/03/28 04:22:40;;;;;;;8.73;1.97;;;;;;;0.21;28.86;98839.06;4977580;28;20046;-66
2022/03/28 04:25:10;;;;;;;13.37;1.63;;;;;;;0.33;28.22;98845.97;5010646;28;20413;-69
2022/03/28 04:27:37;;;;;;;3.97;1.80;;;;;;;0.15;28.36;98815.19;4994507;28;20050;-69
2022/03/28 04:30:04;;;;;;;5.90;1.93;;;;;;;0.28;28.25;98849.91;5010517;28;20046;-68
2022/03/28 04:32:30;;;;;;;5.33;1.50;;;;;;;0.12;28.68;98841.50;4978019;28;20414;-68
2022/03/28 04:34:56;;;;;;;4.33;1.40;;;;;;;0.18;28.40;98846.28;4993906;28;20045;-68
2022/03/28 04:37:24;;;;;;;2.30;1.00;;;;;;;0.02;28.48;98835.31;5008230;28;20125;-68
2022/03/28 04:39:50;;;;;;;4.40;1.30;;;;;;;0.05;28.49;98830.69;5008694;28;20061;-68
2022/03/28 04:42:16;;;;;;;4.17;1.30;;;;;;;-0.05;28.67;98803.59;4993881;28;20038;-69
2022/03/28 04:44:42;;;;;;;9.47;1.50;;;;;;;0.16;28.22;98837.72;4991861;28;20156;-68
2022/03/28 04:47:08;;;;;;;2.83;1.50;;;;;;;0.21;28.48;98833.84;5010273;28;20056;-69
2022/03/28 04:49:34;;;;;;;3.43;1.53;;;;;;;0.24;28.33;98817.09;4993724;28;20042;-68
2022/03/28 04:52:00;;;;;;;1.33;1.20;;;;;;;0.01;28.89;98834.47;5009247;28;20045;-69
2022/03/28 04:54:26;;;;;;;1.97;1.30;;;;;;;-0.18;28.96;98829.75;5009816;28;20209;-68
2022/03/28 04:56:54;;;;;;;8.27;1.67;;;;;;;-0.34;28.55;98800.47;5009663;28;20093;-68
2022/03/28 04:59:20;;;;;;;2.20;1.33;;;;;;;-0.09;28.87;98826.47;4993715;28;20145;-69
2022/03/28 05:01:46;;;;;;;3.97;1.20;;;;;;;-0.01;28.92;98811.09;4976914;28;20041;-68
2022/03/28 05:04:12;;;;;;;2.43;1.13;;;;;;;0.05;28.95;98819.44;5010605;28;20046;-68
2022/03/28 05:06:37;;;;;;;3.33;1.20;;;;;;;0.10;28.47;98776.38;4977097;28;20041;-69
2022/03/28 05:09:06;;;;;;;7.97;1.40;;;;;;;0.38;28.24;98802.09;4977522;28;20390;-68
2022/03/28 05:11:34;;;;;;;9.67;1.70;;;;;;;0.56;28.39;98799.84;4992035;28;20128;-70
2022/03/28 05:14:00;;;;;;;1.40;1.20;;;;;;;0.34;27.90;98769.28;4993350;28;20149;-69
2022/03/28 05:16:26;;;;;;;2.73;1.50;;;;;;;0.84;28.02;98788.97;4993298;28;20046;-67
2022/03/28 05:18:52;;;;;;;6.07;1.40;;;;;;;0.85;27.62;98782.78;5009154;28;20076;-70
2022/03/28 05:21:18;;;;;;;3.50;0.80;;;;;;;0.94;27.34;98771.63;4992096;28;20038;-70
2022/03/28 05:23:44;;;;;;;1.97;1.40;;;;;;;1.14;27.18;98778.72;4991381;28;20079;-69
2022/03/28 05:26:17;;;;;;;3.40;1.20;;;;;;;1.11;27.04;98771.97;5008954;28;20053;-69
2022/03/28 05:28:43;;;;;;;1.00;1.00;;;;;;;1.15;26.96;98769.94;4976836;28;20037;-69
2022/03/28 05:31:09;;;;;;;5.03;1.17;;;;;;;0.63;26.95;98769.72;4993129;28;20133;-70
2022/03/28 05:33:35;;;;;;;2.23;1.30;;;;;;;0.88;27.41;98761.63;4976424;28;20045;-70
2022/03/28 05:36:01;;;;;;;2.60;1.00;;;;;;;0.75;27.17;98745.25;4960439;28;20077;-70
2022/03/28 05:38:27;;;;;;;6.23;1.63;;;;;;;-0.01;28.36;98747.63;4976808;28;20053;-70
2022/03/28 05:40:56;;;;;;;3.90;1.40;;;;;;;0.38;28.24;98736.81;4944876;28;20071;-70
2022/03/28 05:43:22;;;;;;;4.27;1.60;;;;;;;0.63;27.96;98727.91;4993352;28;20044;-70
2022/03/28 05:45:47;;;;;;;3.93;1.43;;;;;;;0.44;27.86;98727.66;5008786;28;20128;-70
2022/03/28 05:48:13;;;;;;;1.73;1.40;;;;;;;0.67;27.94;98714.50;5009481;28;20100;-69
2022/03/28 05:50:39;;;;;;;4.70;1.40;;;;;;;0.74;27.45;98707.03;5010366;28;20034;-70
2022/03/28 05:53:05;;;;;;;3.47;1.43;;;;;;;1.05;27.36;98688.78;4992786;28;20128;-70
2022/03/28 05:55:32;;;;;;;2.17;1.50;;;;;;;0.67;27.66;98680.53;4960897;28;20573;-70
2022/03/28 05:57:58;;;;;;;4.37;1.47;;;;;;;0.64;27.11;98690.38;5009368;28;20038;-70
2022/03/28 06:00:24;;;;;;;4.83;1.53;;;;;;;0.60;27.56;98688.97;5010260;28;20076;-70
2022/03/28 06:02:49;;;;;;;5.00;1.80;;;;;;;0.75;27.29;98691.22;4975532;28;20081;-70
2022/03/28 06:05:15;;;;;;;3.87;1.20;;;;;;;0.71;27.27;98697.63;5008228;28;20855;-70
2022/03/28 06:07:42;;;;;;;2.67;1.23;;;;;;;0.75;26.91;98693.84;5008798;28;20140;-70
2022/03/28 06:10:08;;;;;;;4.67;1.30;;;;;;;0.22;27.71;98675.41;4992799;28;20056;-71
2022/03/28 06:12:34;;;;;;;4.57;1.10;;;;;;;0.36;27.45;98678.63;4975215;28;20123;-70
2022/03/28 06:15:01;;;;;;;2.90;1.40;;;;;;;0.71;27.67;98663.66;4992606;28;20074;-70
2022/03/28 06:17:28;;;;;;;3.50;1.50;;;;;;;1.04;27.39;98671.47;5008634;28;20038;-70
2022/03/28 06:19:54;;;;;;;3.20;1.80;;;;;;;1.14;27.21;98671.53;4992375;28;20049;-71
2022/03/28 06:22:20;;;;;;;13.20;1.63;;;;;;;1.27;27.28;98646.06;4963226;28;20457;-70
2022/03/28 06:24:46;;;;;;;2.70;1.67;;;;;;;1.38;26.91;98632.94;4995670;28;20046;-69
2022/03/28 06:27:12;;;;;;;3.63;1.30;;;;;;;1.29;26.68;98641.56;5014155;28;20042;-70
2022/03/28 06:29:38;;;;;;;7.70;1.73;;;;;;;1.05;26.71;98620.81;4996296;28;20042;-70
2022/03/28 06:32:05;;;;;;;4.87;1.30;;;;;;;0.95;26.92;98635.59;5012698;28;20042;-70
2022/03/28 06:34:31;;;;;;;2.77;1.60;;;;;;;0.83;27.34;98618.25;4996261;28;20049;-69
2022/03/28 06:36:57;;;;;;;2.27;1.33;;;;;;;0.85;27.04;98607.69;4980061;28;20049;-69
2022/03/28 06:39:24;;;;;;;5.03;1.50;;;;;;;0.98;28.09;98595.31;4996341;28;20136;-69
2022/03/28 06:41:50;;;;;;;4.70;1.97;;;;;;;1.02;27.65;98602.78;5012401;28;20041;-69
2022/03/28 06:44:16;;;;;;;6.90;1.80;;;;;;;1.11;27.39;98599.41;4996076;28;20080;-68
2022/03/28 06:46:45;;;;;;;2.63;1.30;;;;;;;0.97;26.94;98598.88;5013288;28;20379;-69
2022/03/28 06:49:14;;;;;;;2.80;1.43;;;;;;;0.82;26.85;98576.56;4996577;28;20076;-69
2022/03/28 06:51:40;;;;;;;2.07;1.50;;;;;;;0.79;26.92;98579.44;4996084;28;20061;-69
2022/03/28 06:54:07;;;;;;;2.23;1.40;;;;;;;1.04;26.64;98569.50;5013150;28;20573;-69
2022/03/28 06:56:34;;;;;;;4.70;1.53;;;;;;;1.05;26.30;98568.53;4995954;28;20069;-69
2022/03/28 06:58:59;;;;;;;2.13;1.40;;;;;;;1.40;26.30;98563.00;4995711;28;20048;-69
2022/03/28 07:01:25;;;;;;;4.20;1.60;;;;;;;1.23;26.34;98545.28;4995776;28;20046;-69
2022/03/28 07:03:52;;;;;;;5.17;1.77;;;;;;;1.32;26.43;98560.22;5011829;28;20498;-69
2022/03/28 07:06:20;;;;;;;8.20;1.90;;;;;;;1.40;25.89;98558.63;4995228;28;20132;-69
2022/03/28 07:08:47;;;;;;;2.47;1.13;;;;;;;0.97;26.00;98536.97;4995699;28;20053;-68
2022/03/28 07:11:13;;;;;;;8.83;1.67;;;;;;;1.08;26.35;98516.00;5004556;28;20080;-68
2022/03/28 07:13:39;;;;;;;4.87;1.73;;;;;;;0.89;26.73;98468.78;4975476;28;20475;-68
2022/03/28 07:16:05;;;;;;;5.33;1.50;;;;;;;1.25;26.18;98520.66;4993421;28;20062;-68
2022/03/28 07:18:31;;;;;;;4.57;1.67;;;;;;;1.42;26.29;98509.63;4959923;28;20391;-68
2022/03/28 07:20:56;;;;;;;4.20;1.30;;;;;;;1.16;26.07;98538.91;4959639;28;20046;-68
2022/03/28 07:23:22;;;;;;;3.63;1.30;;;;;;;1.19;25.61;98486.34;4991990;28;20141;-68
2022/03/28 07:25:48;;;;;;;3.10;1.30;;;;;;;1.15;25.38;98484.97;4959279;28;20054;-68
2022/03/28 07:28:15;;;;;;;1.87;1.30;;;;;;;0.83;25.18;98471.91;4975853;28;20097;-68
2022/03/28 07:30:41;;;;;;;1.30;1.20;;;;;;;1.08;25.33;98468.94;4975613;28;20042;-69
2022/03/28 07:33:07;;;;;;;1.20;1.03;;;;;;;1.03;25.24;98459.84;4974863;28;20145;-68
2022/03/28 07:35:35;;;;;;;1.63;1.10;;;;;;;1.15;25.34;98428.25;4975473;28;20549;-68
2022/03/28 07:38:02;;;;;;;2.20;1.30;;;;;;;1.18;25.16;98459.38;4991841;28;20133;-68
2022/03/28 07:40:28;;;;;;;3.17;1.33;;;;;;;0.87;24.79;98413.22;4993102;28;20498;-68
2022/03/28 07:42:56;;;;;;;2.30;1.00;;;;;;;1.26;24.89;98441.25;4943331;28;20046;-68
2022/03/28 07:45:23;;;;;;;3.13;1.17;;;;;;;1.26;25.36;98424.75;4943200;28;20038;-69
2022/03/28 07:47:49;;;;;;;1.60;1.07;;;;;;;0.98;25.41;98420.16;4959360;28;20046;-69
2022/03/28 07:50:15;;;;;;;1.10;1.00;;;;;;;0.81;26.03;98407.69;4991998;28;20053;-68
2022/03/28 07:52:41;;;;;;;1.03;0.97;;;;;;;0.71;25.98;98449.41;4959192;28;20043;-68
2022/03/28 07:55:08;;;;;;;2.10;1.10;;;;;;;0.94;25.87;98376.97;4992614;28;20034;-68
2022/03/28 07:57:35;;;;;;;2.10;1.37;;;;;;;1.05;25.46;98367.25;4991735;28;20050;-69
2022/03/28 08:00:04;;;;;;;1.17;0.80;;;;;;;1.08;26.18;98374.84;4975647;28;20046;-68
2022/03/28 08:02:38;;;;;;;1.53;1.20;;;;;;;1.22;26.49;98360.56;4976917;28;20042;-68
2022/03/28 08:05:05;;;;;;;1.73;1.13;;;;;;;1.13;26.42;98377.88;4974837;28;20046;-68
2022/03/28 08:07:31;;;;;;;4.17;1.20;;;;;;;0.99;27.38;98361.69;4958912;28;20053;-68
2022/03/28 08:09:57;;;;;;;8.93;1.43;;;;;;;1.25;27.91;98331.56;4959232;28;20050;-69
2022/03/28 08:12:23;;;;;;;5.57;2.33;;;;;;;1.18;27.67;98335.66;4990752;28;20046;-69
2022/03/28 08:14:50;;;;;;;1.20;1.10;;;;;;;1.40;27.85;98323.22;4942722;28;20454;-68
2022/03/28 08:17:18;;;;;;;4.07;1.17;;;;;;;1.59;28.39;98312.81;4991482;28;20057;-67
2022/03/28 08:19:43;;;;;;;9.83;1.33;;;;;;;1.65;28.14;98337.59;4975341;28;20502;-67
2022/03/28 08:22:09;;;;;;;5.30;1.20;;;;;;;0.93;28.82;98302.13;4974990;28;20045;-67
2022/03/28 08:24:35;;;;;;;6.33;1.23;;;;;;;0.92;28.61;98310.91;4974617;28;20050;-68
2022/03/28 08:27:01;;;;;;;4.73;1.37;;;;;;;1.37;28.67;98293.88;4974349;28;20053;-68
2022/03/28 08:29:27;;;;;;;3.87;1.03;;;;;;;1.32;28.30;98298.69;4942924;28;20054;-67
2022/03/28 08:31:53;;;;;;;3.60;1.03;;;;;;;1.26;29.11;98262.63;4958577;28;20125;-67
2022/03/28 08:34:19;;;;;;;4.33;1.23;;;;;;;1.61;29.41;98245.47;4992204;28;20049;-68
2022/03/28 08:36:45;;;;;;;4.10;1.50;;;;;;;1.38;29.30;98248.47;4990699;28;20047;-67
2022/03/28 08:39:11;;;;;;;1.17;1.00;;;;;;;1.40;29.86;98263.06;4958370;28;20490;-67
2022/03/28 08:41:37;;;;;;;3.57;1.30;;;;;;;1.41;30.31;98262.13;4974452;28;20070;-67
2022/03/28 08:44:03;;;;;;;1.40;1.10;;;;;;;1.62;31.10;98212.28;4958500;28;20049;-66
2022/03/28 08:46:30;;;;;;;4.53;0.90;;;;;;;1.51;32.03;98212.41;4973903;28;20568;-68
2022/03/28 08:49:00;;;;;;;4.47;1.10;;;;;;;1.48;32.65;98186.53;4990202;28;20568;-70
2022/03/28 08:51:27;;;;;;;2.57;1.20;;;;;;;1.29;33.08;98178.69;4990570;28;20034;-69
2022/03/28 08:53:54;;;;;;;1.43;0.83;;;;;;;0.96;35.02;98199.91;4942321;28;20406;-68
2022/03/28 08:56:20;;;;;;;3.57;1.60;;;;;;;1.04;35.45;98198.31;4974230;28;20050;-69
2022/03/28 08:58:49;;;;;;;1.83;1.20;;;;;;;0.93;34.96;98197.56;4974408;28;20088;-68
2022/03/28 09:01:14;;;;;;;4.50;1.60;;;;;;;0.81;35.57;98152.44;4974460;28;20265;-68
2022/03/28 09:03:47;;;;;;;1.93;1.43;;;;;;;1.13;35.65;98144.38;4957910;28;20116;-69
2022/03/28 09:06:31;;;;;;;1.63;1.17;;;;;;;0.78;36.36;98123.97;4957871;28;20046;-68
2022/03/28 09:09:09;;;;;;;1.00;1.00;;;;;;;1.00;36.28;98162.13;4973904;28;20038;-68
2022/03/28 09:11:35;;;;;;;1.70;1.20;;;;;;;0.52;36.83;98153.31;4957294;28;20432;-68
2022/03/28 09:14:01;;;;;;;1.00;0.90;;;;;;;0.44;38.12;98125.25;4974029;28;20077;-68
2022/03/28 09:16:31;;;;;;;4.33;1.60;;;;;;;0.59;38.90;98183.16;4958251;28;20046;-69
2022/03/28 09:18:57;;;;;;;1.65;1.00;;;;;;;0.43;40.81;98152.28;4942411;28;20042;-68
2022/03/28 09:21:25;;;;;;;2.10;1.03;;;;;;;0.36;43.02;98171.22;4957873;28;20105;-68
2022/03/28 09:23:52;;;;;;;1.53;1.33;;;;;;;0.19;44.12;98138.72;4958084;28;20136;-68
2022/03/28 09:26:21;;;;;;;3.20;1.20;;;;;;;0.33;44.70;98120.09;4973437;28;20050;-68
2022/03/28 09:28:58;;;;;;;8.50;2.40;;;;;;;0.40;45.08;98108.16;4990813;28;20046;-67
2022/03/28 09:31:32;;;;;;;5.30;1.40;;;;;;;0.36;45.44;98121.63;4973836;28;20097;-67
2022/03/28 09:34:10;;;;;;;3.60;1.53;;;;;;;0.43;46.41;98107.09;4942217;28;20128;-68
2022/03/28 09:36:56;;;;;;;3.33;1.70;;;;;;;0.72;46.34;98094.94;4973428;28;20135;-68
2022/03/28 09:39:27;;;;;;;2.90;1.67;;;;;;;0.81;46.76;98079.28;4973077;28;20050;-67
2022/03/28 09:42:04;;;;;;;5.33;1.87;;;;;;;0.90;46.46;98088.09;4973455;28;20042;-68
2022/03/28 09:44:38;;;;;;;5.13;1.53;;;;;;;0.69;46.94;98090.78;4973576;28;20054;-67
2022/03/28 09:47:05;;;;;;;3.37;1.63;;;;;;;0.60;47.58;98083.75;4989025;28;20147;-66
2022/03/28 09:49:32;;;;;;;3.70;1.60;;;;;;;0.56;48.53;98063.28;4973255;28;20057;-64
2022/03/28 09:52:07;;;;;;;6.87;2.00;;;;;;;0.77;48.24;98054.38;4988981;28;20049;-66
2022/03/28 09:54:51;;;;;;;3.27;1.73;;;;;;;0.42;48.27;98047.97;4988693;28;20414;-68
2022/03/28 09:57:21;;;;;;;2.93;1.73;;;;;;;0.69;49.44;98012.41;4940725;28;20046;-70
2022/03/28 09:59:47;;;;;;;2.80;1.57;;;;;;;0.56;51.89;98003.19;4973244;28;20038;-67
2022/03/28 10:02:34;;;;;;;4.47;1.40;;;;;;;0.81;49.97;98011.34;4973473;28;20050;-66
2022/03/28 10:05:00;;;;;;;2.63;1.40;;;;;;;0.55;50.13;98017.22;4989261;28;20050;-66
2022/03/28 10:07:26;;;;;;;3.90;1.40;;;;;;;0.56;50.29;98011.03;4956047;28;20054;-66
2022/03/28 10:09:53;;;;;;;3.03;1.50;;;;;;;0.76;50.33;97976.13;4940781;28;20049;-66
2022/03/28 10:12:19;;;;;;;2.10;1.50;;;;;;;0.91;49.48;98019.16;4956196;28;20112;-67
2022/03/28 10:14:51;;;;;;;3.40;1.70;;;;;;;1.20;49.63;97962.50;4989152;28;20141;-65
2022/03/28 10:17:17;;;;;;;3.20;1.77;;;;;;;0.88;49.89;97964.56;4990514;28;20046;-66
2022/03/28 10:19:43;;;;;;;3.70;1.30;;;;;;;0.66;50.51;97997.03;4989125;28;20075;-65
2022/03/28 10:22:14;;;;;;;1.90;1.53;;;;;;;0.74;50.59;98005.00;4956769;28;20041;-65
2022/03/28 10:24:41;;;;;;;1.95;1.50;;;;;;;0.62;51.27;97953.88;4973250;28;20061;-65
2022/03/28 10:27:08;;;;;;;3.07;1.77;;;;;;;0.53;51.73;97975.59;4972300;28;20147;-65
2022/03/28 10:29:41;;;;;;;1.47;0.93;;;;;;;0.59;51.84;97985.47;4972532;28;20047;-67
2022/03/28 10:32:15;;;;;;;1.80;1.47;;;;;;;0.81;51.94;97950.44;4988898;28;20077;-67
2022/03/28 10:34:52;;;;;;;0.80;0.80;;;;;;;0.78;51.73;97955.94;4956597;28;20102;-65
2022/03/28 10:37:35;;;;;;;2.40;1.77;;;;;;;0.98;51.88;97939.28;4972085;28;20053;-71
2022/03/28 10:40:26;;;;;;;1.40;1.17;;;;;;;1.23;51.56;97934.25;4988594;28;20054;-65
2022/03/28 10:43:09;;;;;;;0.60;0.60;;;;;;;1.25;51.73;97905.34;4940235;28;20818;-65
2022/03/28 10:45:39;;;;;;;0.50;0.50;;;;;;;1.17;51.96;97882.53;4972644;28;20054;-65
2022/03/28 10:48:07;;;;;;;0.63;0.63;;;;;;;1.16;52.17;97896.59;4988222;28;20053;-65
2022/03/28 10:50:37;;;;;;;0.60;0.60;;;;;;;1.25;52.12;97915.81;4972720;28;20061;-68
2022/03/28 10:53:16;;;;;;;2.28;1.20;;;;;;;1.14;51.69;97882.00;4956770;28;20051;-65
2022/03/28 10:55:48;;;;;;;1.03;1.00;;;;;;;1.09;52.15;97897.31;4988788;28;20050;-63
2022/03/28 10:58:17;;;;;;;1.90;0.83;;;;;;;1.15;52.72;97873.19;4940987;28;20038;-65
2022/03/28 11:01:08;;;;;;;0.70;0.70;;;;;;;1.29;52.44;97847.41;4988778;28;20046;-66
2022/03/28 11:03:36;;;;;;;1.13;1.08;;;;;;;1.07;52.94;97839.94;4972983;28;20049;-67
2022/03/28 11:06:02;;;;;;;1.23;0.97;;;;;;;1.20;52.63;97823.94;4956404;28;20403;-65
2022/03/28 11:08:40;;;;;;;0.50;0.50;;;;;;;1.19;52.41;97777.84;4942595;28;20100;-67
2022/03/28 11:11:12;;;;;;;0.60;0.60;;;;;;;1.34;52.72;97810.34;4943910;28;20050;-66
2022/03/28 11:13:38;;;;;;;0.70;0.70;;;;;;;1.39;52.97;97819.44;4959185;28;20076;-66
2022/03/28 11:16:06;;;;;;;0.70;0.70;;;;;;;1.48;52.91;97812.50;4976057;28;20096;-68
2022/03/28 11:18:32;;;;;;;0.70;0.70;;;;;;;1.51;52.29;97825.28;4959399;28;20052;-67
2022/03/28 11:21:10;;;;;;;1.20;1.13;;;;;;;1.72;52.07;97833.72;4991774;28;20404;-67
2022/03/28 11:23:37;;;;;;;0.70;0.70;;;;;;;1.57;52.51;97804.59;4976128;28;20050;-63
2022/03/28 11:26:03;;;;;;;2.53;1.17;;;;;;;1.58;52.02;97837.63;4975630;28;20042;-65
2022/03/28 11:28:33;;;;;;;1.60;1.43;;;;;;;1.49;52.41;97788.00;4943014;28;20576;-66
2022/03/28 11:31:08;;;;;;;2.20;1.53;;;;;;;1.61;52.01;97777.16;4991891;28;20136;-66
2022/03/28 11:33:40;;;;;;;1.20;1.07;;;;;;;1.41;52.90;97727.75;4975731;28;20049;-66
2022/03/28 11:36:10;;;;;;;;;;;;;;;1.75;52.08;97773.25;4959532;28;20050;-65
2022/03/28 11:38:47;;;;;;;2.10;1.47;;;;;;;1.49;52.01;97746.16;4943184;28;20385;-66
2022/03/28 11:41:14;;;;;;;4.33;1.53;;;;;;;1.43;53.04;97746.75;4943755;28;20454;-65
2022/03/28 11:43:41;;;;;;;2.00;1.80;;;;;;;1.22;53.59;97744.38;4975094;28;20391;-65